North Bend, OH

7:11 PM EDT on May 28, 2015 (GMT -0400)
OHDOT | | Change Station
CLOSE
Current Station
Personal Weather Station
Location: Addyston, OH
Elevation: 486 ft
Nearby Weather Stations

Elev 486 ft 39.13 °N, 84.71 °W | Updated 31 minutes ago

Partly Cloudy
Partly Cloudy
80 °F
Feels Like 81 °F
N
4
Wind Variable Wind from South
Gusts 12.0 mph

Today
High -- | Low -- °F
--% Chance of Precip.
Yesterday
High -- | Low -- °F
Precip. -- in
6:16 AM 8:56 PM
Waxing Gibbous, 79% visible
Pressure 30.13 in
Visibility 10.0 miles
Clouds Few 4000 ft
Scattered Clouds 12000 ft
Scattered Clouds 25000 ft
Heat Index 81 °F
Dew Point 61 °F
Humidity 51%
Rainfall in
Snow Depth Not available.
UV 1 out of 12
Pollen 8.10 out of 12
Air Quality Not available.
Flu Activity Local Activity
METAR KCVG 282252Z 15006KT 10SM FEW040 SCT120 SCT250 27/17 A3015 RMK AO2 SLP201 TCU DSNT S T02670172

More Conditions Fewer Conditions

Pressure 30.13 in
Visibility 10.0 miles
Clouds Few 4000 ft
Scattered Clouds 12000 ft
Scattered Clouds 25000 ft
Heat Index 81 °F
Dew Point 61 °F
Humidity 51%
Rainfall in
Snow Depth Not available.
UV 1 out of 12
Pollen 8.10 out of 12
Air Quality Not available.
Flu Activity Local Activity
METAR KCVG 282252Z 15006KT 10SM FEW040 SCT120 SCT250 27/17 A3015 RMK AO2 SLP201 TCU DSNT S T02670172

More Conditions Fewer Conditions

10-Day Weather Forecast

Almanac

Astronomy

May. 28, 2015 Rise Set
Actual Time
Civil Twilight
Nautical Twilight
Astronomical Twilight
Moon
Length of Visible Light
Length of Day
Tomorrow will be .
, % of the Moon is Illuminated

Today's Extremes

State Highs State Lows

Community

WunderPhotos

Upload Photos

1,825,089 photos uploaded!

WunderBlogs® & News

Nearby

Air Quality

  Air Quality AQ Index Pollutant
Not available.

Snow Depth

Station Depth Elevation

Earthquake Activity

City Distance Mag. Time & Date
Minimum magnitude displayed is 2.5.

Coastal Water Temperatures

Place Temperature

Stations

Nearby Weather Stations

Station Location Temp. Windchill Dew Point Humidity Wind Precip. Elev Updated Type